sensor_id;sensor_type;location;lat;lon;timestamp;P1;durP1;ratioP1;P2;durP2;ratioP2
870;SDS011;422;51.280;7.236;2023-10-09T00:01:50;29.83;;;18.80;;
870;SDS011;422;51.280;7.236;2023-10-09T00:04:20;31.17;;;21.83;;
870;SDS011;422;51.280;7.236;2023-10-09T00:06:48;34.67;;;21.90;;
870;SDS011;422;51.280;7.236;2023-10-09T00:09:15;30.13;;;21.03;;
870;SDS011;422;51.280;7.236;2023-10-09T00:11:58;27.80;;;20.30;;
870;SDS011;422;51.280;7.236;2023-10-09T00:14:26;30.23;;;20.33;;
870;SDS011;422;51.280;7.236;2023-10-09T00:16:56;28.07;;;19.17;;
870;SDS011;422;51.280;7.236;2023-10-09T00:19:43;27.20;;;20.07;;
870;SDS011;422;51.280;7.236;2023-10-09T00:22:13;22.43;;;17.50;;
870;SDS011;422;51.280;7.236;2023-10-09T00:24:51;28.30;;;17.67;;
870;SDS011;422;51.280;7.236;2023-10-09T00:27:36;26.73;;;18.57;;
870;SDS011;422;51.280;7.236;2023-10-09T00:30:07;25.97;;;18.33;;
870;SDS011;422;51.280;7.236;2023-10-09T00:32:40;29.77;;;19.00;;
870;SDS011;422;51.280;7.236;2023-10-09T00:35:25;24.60;;;18.50;;
870;SDS011;422;51.280;7.236;2023-10-09T00:38:12;29.00;;;20.20;;
870;SDS011;422;51.280;7.236;2023-10-09T00:40:49;23.37;;;17.50;;
870;SDS011;422;51.280;7.236;2023-10-09T00:43:28;24.33;;;18.93;;
870;SDS011;422;51.280;7.236;2023-10-09T00:45:56;29.43;;;19.23;;
870;SDS011;422;51.280;7.236;2023-10-09T00:48:34;26.77;;;18.70;;
870;SDS011;422;51.280;7.236;2023-10-09T00:51:07;20.63;;;15.57;;
870;SDS011;422;51.280;7.236;2023-10-09T00:53:44;23.03;;;17.13;;
870;SDS011;422;51.280;7.236;2023-10-09T00:56:15;28.03;;;17.77;;
870;SDS011;422;51.280;7.236;2023-10-09T00:58:55;29.00;;;18.90;;
870;SDS011;422;51.280;7.236;2023-10-09T01:01:26;22.30;;;16.07;;
870;SDS011;422;51.280;7.236;2023-10-09T01:04:00;24.73;;;18.53;;
870;SDS011;422;51.280;7.236;2023-10-09T01:06:33;21.00;;;16.97;;
870;SDS011;422;51.280;7.236;2023-10-09T01:09:08;27.07;;;17.57;;
870;SDS011;422;51.280;7.236;2023-10-09T01:11:37;24.40;;;18.03;;
870;SDS011;422;51.280;7.236;2023-10-09T01:14:13;23.10;;;17.03;;
870;SDS011;422;51.280;7.236;2023-10-09T01:16:40;25.40;;;17.53;;
870;SDS011;422;51.280;7.236;2023-10-09T01:19:09;21.97;;;16.50;;
870;SDS011;422;51.280;7.236;2023-10-09T01:21:47;23.63;;;17.77;;
870;SDS011;422;51.280;7.236;2023-10-09T01:24:16;19.90;;;15.57;;
870;SDS011;422;51.280;7.236;2023-10-09T01:26:45;28.03;;;16.50;;
870;SDS011;422;51.280;7.236;2023-10-09T01:29:15;20.60;;;16.70;;
870;SDS011;422;51.280;7.236;2023-10-09T01:31:45;21.77;;;15.60;;
870;SDS011;422;51.280;7.236;2023-10-09T01:34:20;21.40;;;16.57;;
870;SDS011;422;51.280;7.236;2023-10-09T01:36:51;23.77;;;16.50;;
870;SDS011;422;51.280;7.236;2023-10-09T01:39:23;21.60;;;15.47;;
870;SDS011;422;51.280;7.236;2023-10-09T01:41:51;24.63;;;15.87;;
870;SDS011;422;51.280;7.236;2023-10-09T01:44:25;22.37;;;15.53;;
870;SDS011;422;51.280;7.236;2023-10-09T01:46:53;21.20;;;15.67;;
870;SDS011;422;51.280;7.236;2023-10-09T01:49:23;23.70;;;16.47;;
870;SDS011;422;51.280;7.236;2023-10-09T01:51:56;24.47;;;16.63;;
870;SDS011;422;51.280;7.236;2023-10-09T01:54:36;20.80;;;13.70;;
870;SDS011;422;51.280;7.236;2023-10-09T01:57:04;22.30;;;15.43;;
870;SDS011;422;51.280;7.236;2023-10-09T01:59:37;22.80;;;14.70;;
870;SDS011;422;51.280;7.236;2023-10-09T02:02:09;23.73;;;15.13;;
870;SDS011;422;51.280;7.236;2023-10-09T02:04:57;24.43;;;15.63;;
870;SDS011;422;51.280;7.236;2023-10-09T02:07:34;19.30;;;15.80;;
870;SDS011;422;51.280;7.236;2023-10-09T02:10:11;20.17;;;14.43;;
870;SDS011;422;51.280;7.236;2023-10-09T02:12:51;21.67;;;14.83;;
870;SDS011;422;51.280;7.236;2023-10-09T02:15:22;17.33;;;13.90;;
870;SDS011;422;51.280;7.236;2023-10-09T02:18:04;20.87;;;14.97;;
870;SDS011;422;51.280;7.236;2023-10-09T02:20:42;20.20;;;15.70;;
870;SDS011;422;51.280;7.236;2023-10-09T02:23:11;18.80;;;14.87;;
870;SDS011;422;51.280;7.236;2023-10-09T02:25:41;26.47;;;16.33;;
870;SDS011;422;51.280;7.236;2023-10-09T02:28:09;23.93;;;15.20;;
870;SDS011;422;51.280;7.236;2023-10-09T02:30:43;19.97;;;15.13;;
870;SDS011;422;51.280;7.236;2023-10-09T02:33:12;19.00;;;14.80;;
870;SDS011;422;51.280;7.236;2023-10-09T02:35:46;17.70;;;14.40;;
870;SDS011;422;51.280;7.236;2023-10-09T02:38:16;24.37;;;14.57;;
870;SDS011;422;51.280;7.236;2023-10-09T02:40:49;20.23;;;15.83;;
870;SDS011;422;51.280;7.236;2023-10-09T02:43:43;21.07;;;16.30;;
870;SDS011;422;51.280;7.236;2023-10-09T02:46:12;20.53;;;15.60;;
870;SDS011;422;51.280;7.236;2023-10-09T02:48:43;22.10;;;15.70;;
870;SDS011;422;51.280;7.236;2023-10-09T02:51:15;23.97;;;15.23;;
870;SDS011;422;51.280;7.236;2023-10-09T02:53:58;20.80;;;14.90;;
870;SDS011;422;51.280;7.236;2023-10-09T02:56:34;21.97;;;14.70;;
870;SDS011;422;51.280;7.236;2023-10-09T02:59:07;19.30;;;14.70;;
870;SDS011;422;51.280;7.236;2023-10-09T03:01:35;18.60;;;15.30;;
870;SDS011;422;51.280;7.236;2023-10-09T03:04:05;24.93;;;15.60;;
870;SDS011;422;51.280;7.236;2023-10-09T03:06:35;17.67;;;13.77;;
870;SDS011;422;51.280;7.236;2023-10-09T03:09:08;15.80;;;13.27;;
870;SDS011;422;51.280;7.236;2023-10-09T03:11:44;18.63;;;14.20;;
870;SDS011;422;51.280;7.236;2023-10-09T03:14:13;15.17;;;13.27;;
870;SDS011;422;51.280;7.236;2023-10-09T03:16:41;18.27;;;13.63;;
870;SDS011;422;51.280;7.236;2023-10-09T03:19:09;16.40;;;12.43;;
870;SDS011;422;51.280;7.236;2023-10-09T03:21:38;16.60;;;12.90;;
870;SDS011;422;51.280;7.236;2023-10-09T03:24:06;16.00;;;11.97;;
870;SDS011;422;51.280;7.236;2023-10-09T03:26:34;16.67;;;11.97;;
870;SDS011;422;51.280;7.236;2023-10-09T03:29:03;17.30;;;13.60;;
870;SDS011;422;51.280;7.236;2023-10-09T03:31:32;16.70;;;12.83;;
870;SDS011;422;51.280;7.236;2023-10-09T03:33:59;17.33;;;12.23;;
870;SDS011;422;51.280;7.236;2023-10-09T03:36:27;20.40;;;12.83;;
870;SDS011;422;51.280;7.236;2023-10-09T03:38:56;17.37;;;13.40;;
870;SDS011;422;51.280;7.236;2023-10-09T03:41:25;16.30;;;12.83;;
870;SDS011;422;51.280;7.236;2023-10-09T03:43:54;16.93;;;13.50;;
870;SDS011;422;51.280;7.236;2023-10-09T03:46:22;21.93;;;12.40;;
870;SDS011;422;51.280;7.236;2023-10-09T03:48:57;18.80;;;13.77;;
870;SDS011;422;51.280;7.236;2023-10-09T03:51:26;13.90;;;12.40;;
870;SDS011;422;51.280;7.236;2023-10-09T03:53:54;17.87;;;13.87;;
870;SDS011;422;51.280;7.236;2023-10-09T03:56:22;17.90;;;12.97;;
870;SDS011;422;51.280;7.236;2023-10-09T03:58:50;16.80;;;13.13;;
870;SDS011;422;51.280;7.236;2023-10-09T04:01:19;15.83;;;12.20;;
870;SDS011;422;51.280;7.236;2023-10-09T04:03:54;17.90;;;14.07;;
870;SDS011;422;51.280;7.236;2023-10-09T04:06:25;17.23;;;12.30;;
870;SDS011;422;51.280;7.236;2023-10-09T04:08:57;14.50;;;12.70;;
870;SDS011;422;51.280;7.236;2023-10-09T04:11:25;16.20;;;12.50;;
870;SDS011;422;51.280;7.236;2023-10-09T04:13:52;17.50;;;13.03;;
870;SDS011;422;51.280;7.236;2023-10-09T04:16:20;16.93;;;13.20;;
870;SDS011;422;51.280;7.236;2023-10-09T04:19:17;13.83;;;12.33;;
870;SDS011;422;51.280;7.236;2023-10-09T04:21:47;19.50;;;14.13;;
870;SDS011;422;51.280;7.236;2023-10-09T04:24:14;17.97;;;11.70;;
870;SDS011;422;51.280;7.236;2023-10-09T04:26:50;21.70;;;13.03;;
870;SDS011;422;51.280;7.236;2023-10-09T04:29:27;17.47;;;13.60;;
870;SDS011;422;51.280;7.236;2023-10-09T04:32:04;16.57;;;11.80;;
870;SDS011;422;51.280;7.236;2023-10-09T04:34:42;16.90;;;12.80;;
870;SDS011;422;51.280;7.236;2023-10-09T04:37:15;18.73;;;13.40;;
870;SDS011;422;51.280;7.236;2023-10-09T04:40:02;18.10;;;12.70;;
870;SDS011;422;51.280;7.236;2023-10-09T04:42:38;18.33;;;12.87;;
870;SDS011;422;51.280;7.236;2023-10-09T04:45:11;16.30;;;12.87;;
870;SDS011;422;51.280;7.236;2023-10-09T04:47:56;16.33;;;12.33;;
870;SDS011;422;51.280;7.236;2023-10-09T04:50:33;15.40;;;11.97;;
870;SDS011;422;51.280;7.236;2023-10-09T04:53:13;15.70;;;13.10;;
870;SDS011;422;51.280;7.236;2023-10-09T04:55:50;15.43;;;11.93;;
870;SDS011;422;51.280;7.236;2023-10-09T04:58:29;20.77;;;13.07;;
870;SDS011;422;51.280;7.236;2023-10-09T05:01:04;17.93;;;13.03;;
870;SDS011;422;51.280;7.236;2023-10-09T05:03:58;15.17;;;12.33;;
870;SDS011;422;51.280;7.236;2023-10-09T05:06:31;17.93;;;14.07;;
870;SDS011;422;51.280;7.236;2023-10-09T05:09:20;17.00;;;12.00;;
870;SDS011;422;51.280;7.236;2023-10-09T05:11:48;15.57;;;13.23;;
870;SDS011;422;51.280;7.236;2023-10-09T05:14:40;15.03;;;13.03;;
870;SDS011;422;51.280;7.236;2023-10-09T05:17:24;19.80;;;13.10;;
870;SDS011;422;51.280;7.236;2023-10-09T05:19:51;19.03;;;12.87;;
870;SDS011;422;51.280;7.236;2023-10-09T05:22:42;18.93;;;13.70;;
870;SDS011;422;51.280;7.236;2023-10-09T05:25:22;16.20;;;12.90;;
870;SDS011;422;51.280;7.236;2023-10-09T05:28:04;14.83;;;12.00;;
870;SDS011;422;51.280;7.236;2023-10-09T05:30:45;16.23;;;11.87;;
870;SDS011;422;51.280;7.236;2023-10-09T05:33:20;16.40;;;12.50;;
870;SDS011;422;51.280;7.236;2023-10-09T05:35:58;14.03;;;12.50;;
870;SDS011;422;51.280;7.236;2023-10-09T05:38:42;16.23;;;12.77;;
870;SDS011;422;51.280;7.236;2023-10-09T05:41:24;13.47;;;12.07;;
870;SDS011;422;51.280;7.236;2023-10-09T05:43:56;16.30;;;12.30;;
870;SDS011;422;51.280;7.236;2023-10-09T05:46:41;14.37;;;12.03;;
870;SDS011;422;51.280;7.236;2023-10-09T05:49:29;16.13;;;13.00;;
870;SDS011;422;51.280;7.236;2023-10-09T05:52:11;16.30;;;13.10;;
870;SDS011;422;51.280;7.236;2023-10-09T05:54:53;15.60;;;12.50;;
870;SDS011;422;51.280;7.236;2023-10-09T05:57:45;17.10;;;12.90;;
870;SDS011;422;51.280;7.236;2023-10-09T06:00:30;19.40;;;13.90;;
870;SDS011;422;51.280;7.236;2023-10-09T06:03:15;17.60;;;13.90;;
870;SDS011;422;51.280;7.236;2023-10-09T06:06:03;16.23;;;13.10;;
870;SDS011;422;51.280;7.236;2023-10-09T06:08:31;16.90;;;13.10;;
870;SDS011;422;51.280;7.236;2023-10-09T06:11:35;19.57;;;13.63;;
870;SDS011;422;51.280;7.236;2023-10-09T06:14:04;16.00;;;13.10;;
870;SDS011;422;51.280;7.236;2023-10-09T06:16:38;16.63;;;12.73;;
870;SDS011;422;51.280;7.236;2023-10-09T06:19:08;19.27;;;13.47;;
870;SDS011;422;51.280;7.236;2023-10-09T06:21:38;19.00;;;13.10;;
870;SDS011;422;51.280;7.236;2023-10-09T06:24:06;17.53;;;12.93;;
870;SDS011;422;51.280;7.236;2023-10-09T06:26:45;17.00;;;12.43;;
870;SDS011;422;51.280;7.236;2023-10-09T06:29:32;20.73;;;13.33;;
870;SDS011;422;51.280;7.236;2023-10-09T06:32:03;19.73;;;14.90;;
870;SDS011;422;51.280;7.236;2023-10-09T06:34:49;15.47;;;12.40;;
870;SDS011;422;51.280;7.236;2023-10-09T06:37:18;19.57;;;14.07;;
870;SDS011;422;51.280;7.236;2023-10-09T06:39:59;17.00;;;13.07;;
870;SDS011;422;51.280;7.236;2023-10-09T06:42:45;16.07;;;12.30;;
870;SDS011;422;51.280;7.236;2023-10-09T06:45:16;17.97;;;13.63;;
870;SDS011;422;51.280;7.236;2023-10-09T06:47:46;16.10;;;12.23;;
870;SDS011;422;51.280;7.236;2023-10-09T06:50:21;17.13;;;12.87;;
870;SDS011;422;51.280;7.236;2023-10-09T06:53:12;17.97;;;12.83;;
870;SDS011;422;51.280;7.236;2023-10-09T06:55:44;17.47;;;12.90;;
870;SDS011;422;51.280;7.236;2023-10-09T06:58:18;16.97;;;12.20;;
870;SDS011;422;51.280;7.236;2023-10-09T07:00:52;18.33;;;13.80;;
870;SDS011;422;51.280;7.236;2023-10-09T07:03:34;20.60;;;13.43;;
870;SDS011;422;51.280;7.236;2023-10-09T07:06:17;13.27;;;11.57;;
870;SDS011;422;51.280;7.236;2023-10-09T07:08:50;16.30;;;13.40;;
870;SDS011;422;51.280;7.236;2023-10-09T07:11:41;21.13;;;13.10;;
870;SDS011;422;51.280;7.236;2023-10-09T07:14:36;17.17;;;12.40;;
870;SDS011;422;51.280;7.236;2023-10-09T07:17:21;17.03;;;11.30;;
870;SDS011;422;51.280;7.236;2023-10-09T07:19:49;15.23;;;13.57;;
870;SDS011;422;51.280;7.236;2023-10-09T07:22:34;16.10;;;13.50;;
870;SDS011;422;51.280;7.236;2023-10-09T07:25:18;16.33;;;12.77;;
870;SDS011;422;51.280;7.236;2023-10-09T07:28:00;18.10;;;13.20;;
870;SDS011;422;51.280;7.236;2023-10-09T07:30:30;20.23;;;13.60;;
870;SDS011;422;51.280;7.236;2023-10-09T07:33:05;15.80;;;13.13;;
870;SDS011;422;51.280;7.236;2023-10-09T07:35:43;14.30;;;11.80;;
870;SDS011;422;51.280;7.236;2023-10-09T07:38:23;15.83;;;13.00;;
870;SDS011;422;51.280;7.236;2023-10-09T07:40:54;16.23;;;12.83;;
870;SDS011;422;51.280;7.236;2023-10-09T07:43:42;16.57;;;12.43;;
870;SDS011;422;51.280;7.236;2023-10-09T07:46:13;14.10;;;11.80;;
870;SDS011;422;51.280;7.236;2023-10-09T07:49:04;17.30;;;13.27;;
870;SDS011;422;51.280;7.236;2023-10-09T07:51:35;18.80;;;13.20;;
870;SDS011;422;51.280;7.236;2023-10-09T07:54:03;14.30;;;12.80;;
870;SDS011;422;51.280;7.236;2023-10-09T07:56:33;17.90;;;12.67;;
870;SDS011;422;51.280;7.236;2023-10-09T07:59:06;20.07;;;13.07;;
870;SDS011;422;51.280;7.236;2023-10-09T08:01:39;13.03;;;11.70;;
870;SDS011;422;51.280;7.236;2023-10-09T08:04:17;15.03;;;13.50;;
870;SDS011;422;51.280;7.236;2023-10-09T08:07:05;18.03;;;12.30;;
870;SDS011;422;51.280;7.236;2023-10-09T08:09:34;14.07;;;12.50;;
870;SDS011;422;51.280;7.236;2023-10-09T08:12:12;16.97;;;12.60;;
870;SDS011;422;51.280;7.236;2023-10-09T08:14:57;17.80;;;12.70;;
870;SDS011;422;51.280;7.236;2023-10-09T08:17:41;18.93;;;13.50;;
870;SDS011;422;51.280;7.236;2023-10-09T08:20:13;17.17;;;14.30;;
870;SDS011;422;51.280;7.236;2023-10-09T08:22:42;14.47;;;12.43;;
870;SDS011;422;51.280;7.236;2023-10-09T08:25:15;16.47;;;12.43;;
870;SDS011;422;51.280;7.236;2023-10-09T08:27:57;14.40;;;12.50;;
870;SDS011;422;51.280;7.236;2023-10-09T08:30:46;17.23;;;12.80;;
870;SDS011;422;51.280;7.236;2023-10-09T08:33:29;15.10;;;12.43;;
870;SDS011;422;51.280;7.236;2023-10-09T08:36:06;18.23;;;12.20;;
870;SDS011;422;51.280;7.236;2023-10-09T08:38:34;14.87;;;13.10;;
870;SDS011;422;51.280;7.236;2023-10-09T08:41:06;21.27;;;14.23;;
870;SDS011;422;51.280;7.236;2023-10-09T08:43:44;16.43;;;13.27;;
870;SDS011;422;51.280;7.236;2023-10-09T08:46:18;20.63;;;15.50;;
870;SDS011;422;51.280;7.236;2023-10-09T08:48:48;15.90;;;12.67;;
870;SDS011;422;51.280;7.236;2023-10-09T08:51:17;14.97;;;11.20;;
870;SDS011;422;51.280;7.236;2023-10-09T08:53:46;17.17;;;12.60;;
870;SDS011;422;51.280;7.236;2023-10-09T08:56:13;15.30;;;12.23;;
870;SDS011;422;51.280;7.236;2023-10-09T08:58:48;16.33;;;12.73;;
870;SDS011;422;51.280;7.236;2023-10-09T09:01:16;22.63;;;13.70;;
870;SDS011;422;51.280;7.236;2023-10-09T09:03:47;16.43;;;13.73;;
870;SDS011;422;51.280;7.236;2023-10-09T09:06:17;19.47;;;13.80;;
870;SDS011;422;51.280;7.236;2023-10-09T09:08:45;19.83;;;13.47;;
870;SDS011;422;51.280;7.236;2023-10-09T09:11:14;16.60;;;12.83;;
870;SDS011;422;51.280;7.236;2023-10-09T09:13:43;17.17;;;13.47;;
870;SDS011;422;51.280;7.236;2023-10-09T09:16:15;17.37;;;13.10;;
870;SDS011;422;51.280;7.236;2023-10-09T09:18:51;15.20;;;11.13;;
870;SDS011;422;51.280;7.236;2023-10-09T09:21:28;17.50;;;11.60;;
870;SDS011;422;51.280;7.236;2023-10-09T09:24:02;14.10;;;12.10;;
870;SDS011;422;51.280;7.236;2023-10-09T09:26:41;13.90;;;11.27;;
870;SDS011;422;51.280;7.236;2023-10-09T09:29:12;20.43;;;13.00;;
870;SDS011;422;51.280;7.236;2023-10-09T09:31:52;13.63;;;11.27;;
870;SDS011;422;51.280;7.236;2023-10-09T09:34:21;21.80;;;12.07;;
870;SDS011;422;51.280;7.236;2023-10-09T09:36:54;15.73;;;11.63;;
870;SDS011;422;51.280;7.236;2023-10-09T09:39:25;14.70;;;12.10;;
870;SDS011;422;51.280;7.236;2023-10-09T09:41:57;15.67;;;13.00;;
870;SDS011;422;51.280;7.236;2023-10-09T09:44:33;18.20;;;11.40;;
870;SDS011;422;51.280;7.236;2023-10-09T09:47:08;11.93;;;10.70;;
870;SDS011;422;51.280;7.236;2023-10-09T09:49:41;13.23;;;11.20;;
870;SDS011;422;51.280;7.236;2023-10-09T09:52:09;13.07;;;10.83;;
870;SDS011;422;51.280;7.236;2023-10-09T09:54:37;15.03;;;10.90;;
870;SDS011;422;51.280;7.236;2023-10-09T09:57:06;15.00;;;10.50;;
870;SDS011;422;51.280;7.236;2023-10-09T09:59:38;15.87;;;11.70;;
870;SDS011;422;51.280;7.236;2023-10-09T10:02:18;12.77;;;10.63;;
870;SDS011;422;51.280;7.236;2023-10-09T10:04:57;12.20;;;10.30;;
870;SDS011;422;51.280;7.236;2023-10-09T10:07:28;17.87;;;11.83;;
870;SDS011;422;51.280;7.236;2023-10-09T10:13:17;17.50;;;10.57;;
870;SDS011;422;51.280;7.236;2023-10-09T10:16:07;12.00;;;10.00;;
870;SDS011;422;51.280;7.236;2023-10-09T10:21:26;13.83;;;10.10;;
870;SDS011;422;51.280;7.236;2023-10-09T10:24:10;14.90;;;10.03;;
870;SDS011;422;51.280;7.236;2023-10-09T10:27:19;19.37;;;10.93;;
870;SDS011;422;51.280;7.236;2023-10-09T10:33:02;11.30;;;10.10;;
870;SDS011;422;51.280;7.236;2023-10-09T10:35:43;12.20;;;9.00;;
870;SDS011;422;51.280;7.236;2023-10-09T10:38:31;16.30;;;11.70;;
870;SDS011;422;51.280;7.236;2023-10-09T10:41:11;14.17;;;10.37;;
870;SDS011;422;51.280;7.236;2023-10-09T10:43:41;14.87;;;11.30;;
870;SDS011;422;51.280;7.236;2023-10-09T10:46:24;15.03;;;9.50;;
870;SDS011;422;51.280;7.236;2023-10-09T10:48:59;14.87;;;11.23;;
870;SDS011;422;51.280;7.236;2023-10-09T10:51:40;15.93;;;11.10;;
870;SDS011;422;51.280;7.236;2023-10-09T10:54:20;16.70;;;11.23;;
870;SDS011;422;51.280;7.236;2023-10-09T10:57:13;15.17;;;10.60;;
870;SDS011;422;51.280;7.236;2023-10-09T10:59:45;15.53;;;11.13;;
870;SDS011;422;51.280;7.236;2023-10-09T11:02:14;12.17;;;9.47;;
870;SDS011;422;51.280;7.236;2023-10-09T11:04:53;13.37;;;11.13;;
870;SDS011;422;51.280;7.236;2023-10-09T11:07:39;14.03;;;11.40;;
870;SDS011;422;51.280;7.236;2023-10-09T11:10:09;15.20;;;12.17;;
870;SDS011;422;51.280;7.236;2023-10-09T11:12:44;16.93;;;12.07;;
870;SDS011;422;51.280;7.236;2023-10-09T11:15:39;13.00;;;10.80;;
870;SDS011;422;51.280;7.236;2023-10-09T11:18:22;17.13;;;11.93;;
870;SDS011;422;51.280;7.236;2023-10-09T11:20:52;16.20;;;11.97;;
870;SDS011;422;51.280;7.236;2023-10-09T11:23:43;14.90;;;9.60;;
870;SDS011;422;51.280;7.236;2023-10-09T11:26:24;15.60;;;11.17;;
870;SDS011;422;51.280;7.236;2023-10-09T11:31:40;17.63;;;11.10;;
870;SDS011;422;51.280;7.236;2023-10-09T11:34:17;13.33;;;10.00;;
870;SDS011;422;51.280;7.236;2023-10-09T11:36:55;11.80;;;10.47;;
870;SDS011;422;51.280;7.236;2023-10-09T11:39:24;14.03;;;10.50;;
870;SDS011;422;51.280;7.236;2023-10-09T11:42:06;13.10;;;10.40;;
870;SDS011;422;51.280;7.236;2023-10-09T11:44:35;13.63;;;9.73;;
870;SDS011;422;51.280;7.236;2023-10-09T11:47:06;13.80;;;11.17;;
870;SDS011;422;51.280;7.236;2023-10-09T11:49:50;15.57;;;10.33;;
870;SDS011;422;51.280;7.236;2023-10-09T11:52:41;14.53;;;10.20;;
870;SDS011;422;51.280;7.236;2023-10-09T11:55:33;12.30;;;10.20;;
870;SDS011;422;51.280;7.236;2023-10-09T11:58:03;15.90;;;10.70;;
870;SDS011;422;51.280;7.236;2023-10-09T12:00:32;11.57;;;10.20;;
870;SDS011;422;51.280;7.236;2023-10-09T12:03:10;12.90;;;10.20;;
870;SDS011;422;51.280;7.236;2023-10-09T12:05:38;12.40;;;10.77;;
870;SDS011;422;51.280;7.236;2023-10-09T12:08:09;14.90;;;10.17;;
870;SDS011;422;51.280;7.236;2023-10-09T12:10:39;14.53;;;9.70;;
870;SDS011;422;51.280;7.236;2023-10-09T12:13:08;15.23;;;11.00;;
870;SDS011;422;51.280;7.236;2023-10-09T12:15:35;12.30;;;10.40;;
870;SDS011;422;51.280;7.236;2023-10-09T12:18:06;15.93;;;10.83;;
870;SDS011;422;51.280;7.236;2023-10-09T12:20:43;12.80;;;10.07;;
870;SDS011;422;51.280;7.236;2023-10-09T12:23:16;11.90;;;10.53;;
870;SDS011;422;51.280;7.236;2023-10-09T12:25:43;12.20;;;10.70;;
870;SDS011;422;51.280;7.236;2023-10-09T12:28:12;14.33;;;10.63;;
870;SDS011;422;51.280;7.236;2023-10-09T12:30:40;15.80;;;11.37;;
870;SDS011;422;51.280;7.236;2023-10-09T12:33:08;12.87;;;10.87;;
870;SDS011;422;51.280;7.236;2023-10-09T12:35:37;19.60;;;10.97;;
870;SDS011;422;51.280;7.236;2023-10-09T12:38:05;14.60;;;11.47;;
870;SDS011;422;51.280;7.236;2023-10-09T12:40:35;14.20;;;11.27;;
870;SDS011;422;51.280;7.236;2023-10-09T12:43:04;14.13;;;11.40;;
870;SDS011;422;51.280;7.236;2023-10-09T12:45:42;13.10;;;10.40;;
870;SDS011;422;51.280;7.236;2023-10-09T12:48:10;16.33;;;11.60;;
870;SDS011;422;51.280;7.236;2023-10-09T12:50:39;14.40;;;11.20;;
870;SDS011;422;51.280;7.236;2023-10-09T12:53:09;18.23;;;11.80;;
870;SDS011;422;51.280;7.236;2023-10-09T12:55:43;15.60;;;11.63;;
870;SDS011;422;51.280;7.236;2023-10-09T12:58:10;12.13;;;10.53;;
870;SDS011;422;51.280;7.236;2023-10-09T13:00:42;13.70;;;10.60;;
870;SDS011;422;51.280;7.236;2023-10-09T13:03:14;13.33;;;10.30;;
870;SDS011;422;51.280;7.236;2023-10-09T13:05:47;11.90;;;10.63;;
870;SDS011;422;51.280;7.236;2023-10-09T13:08:20;13.00;;;10.40;;
870;SDS011;422;51.280;7.236;2023-10-09T13:10:51;14.33;;;10.53;;
870;SDS011;422;51.280;7.236;2023-10-09T13:13:26;12.03;;;10.67;;
870;SDS011;422;51.280;7.236;2023-10-09T13:16:06;13.63;;;10.53;;
870;SDS011;422;51.280;7.236;2023-10-09T13:18:36;12.80;;;10.30;;
870;SDS011;422;51.280;7.236;2023-10-09T13:21:05;17.40;;;11.23;;
870;SDS011;422;51.280;7.236;2023-10-09T13:23:32;16.03;;;10.80;;
870;SDS011;422;51.280;7.236;2023-10-09T13:26:12;14.57;;;11.17;;
870;SDS011;422;51.280;7.236;2023-10-09T13:28:49;13.93;;;10.80;;
870;SDS011;422;51.280;7.236;2023-10-09T13:31:19;14.80;;;11.00;;
870;SDS011;422;51.280;7.236;2023-10-09T13:33:51;12.43;;;11.13;;
870;SDS011;422;51.280;7.236;2023-10-09T13:36:20;13.03;;;10.60;;
870;SDS011;422;51.280;7.236;2023-10-09T13:38:56;18.17;;;11.93;;
870;SDS011;422;51.280;7.236;2023-10-09T13:41:27;13.90;;;11.00;;
870;SDS011;422;51.280;7.236;2023-10-09T13:43:54;13.23;;;11.10;;
870;SDS011;422;51.280;7.236;2023-10-09T13:46:24;13.23;;;11.83;;
870;SDS011;422;51.280;7.236;2023-10-09T13:48:53;16.50;;;11.27;;
870;SDS011;422;51.280;7.236;2023-10-09T13:51:20;13.63;;;11.30;;
870;SDS011;422;51.280;7.236;2023-10-09T13:53:49;16.90;;;10.90;;
870;SDS011;422;51.280;7.236;2023-10-09T13:56:17;12.53;;;11.23;;
870;SDS011;422;51.280;7.236;2023-10-09T13:58:45;15.87;;;10.87;;
870;SDS011;422;51.280;7.236;2023-10-09T14:01:14;14.60;;;11.90;;
870;SDS011;422;51.280;7.236;2023-10-09T14:03:57;14.33;;;11.00;;
870;SDS011;422;51.280;7.236;2023-10-09T14:06:25;15.63;;;11.70;;
870;SDS011;422;51.280;7.236;2023-10-09T14:09:00;14.57;;;11.67;;
870;SDS011;422;51.280;7.236;2023-10-09T14:11:30;15.27;;;12.10;;
870;SDS011;422;51.280;7.236;2023-10-09T14:13:58;12.33;;;10.10;;
870;SDS011;422;51.280;7.236;2023-10-09T14:16:26;14.93;;;11.80;;
870;SDS011;422;51.280;7.236;2023-10-09T14:18:54;16.20;;;11.90;;
870;SDS011;422;51.280;7.236;2023-10-09T14:21:25;19.47;;;12.90;;
870;SDS011;422;51.280;7.236;2023-10-09T14:23:55;15.40;;;12.73;;
870;SDS011;422;51.280;7.236;2023-10-09T14:26:26;17.43;;;12.10;;
870;SDS011;422;51.280;7.236;2023-10-09T14:28:54;14.30;;;12.00;;
870;SDS011;422;51.280;7.236;2023-10-09T14:31:23;16.67;;;12.90;;
870;SDS011;422;51.280;7.236;2023-10-09T14:33:54;18.63;;;13.60;;
870;SDS011;422;51.280;7.236;2023-10-09T14:36:23;19.93;;;12.87;;
870;SDS011;422;51.280;7.236;2023-10-09T14:38:58;19.70;;;12.37;;
870;SDS011;422;51.280;7.236;2023-10-09T14:41:26;19.03;;;13.43;;
870;SDS011;422;51.280;7.236;2023-10-09T14:43:58;16.50;;;11.37;;
870;SDS011;422;51.280;7.236;2023-10-09T14:46:26;16.97;;;12.47;;
870;SDS011;422;51.280;7.236;2023-10-09T14:48:54;13.63;;;12.13;;
870;SDS011;422;51.280;7.236;2023-10-09T14:51:24;20.60;;;11.83;;
870;SDS011;422;51.280;7.236;2023-10-09T14:53:54;14.97;;;12.23;;
870;SDS011;422;51.280;7.236;2023-10-09T14:56:27;15.90;;;12.40;;
870;SDS011;422;51.280;7.236;2023-10-09T14:58:59;16.53;;;13.30;;
870;SDS011;422;51.280;7.236;2023-10-09T15:01:26;16.80;;;11.10;;
870;SDS011;422;51.280;7.236;2023-10-09T15:03:56;16.77;;;13.00;;
870;SDS011;422;51.280;7.236;2023-10-09T15:08:59;18.30;;;13.37;;
870;SDS011;422;51.280;7.236;2023-10-09T15:11:33;21.73;;;14.97;;
870;SDS011;422;51.280;7.236;2023-10-09T15:14:04;16.23;;;14.00;;
870;SDS011;422;51.280;7.236;2023-10-09T15:16:33;16.07;;;14.17;;
870;SDS011;422;51.280;7.236;2023-10-09T15:19:04;19.00;;;14.40;;
870;SDS011;422;51.280;7.236;2023-10-09T15:21:33;18.30;;;15.40;;
870;SDS011;422;51.280;7.236;2023-10-09T15:24:01;18.77;;;14.83;;
870;SDS011;422;51.280;7.236;2023-10-09T15:26:32;17.83;;;15.40;;
870;SDS011;422;51.280;7.236;2023-10-09T15:29:02;19.43;;;15.10;;
870;SDS011;422;51.280;7.236;2023-10-09T15:31:32;24.03;;;14.97;;
870;SDS011;422;51.280;7.236;2023-10-09T15:33:59;18.20;;;15.80;;
870;SDS011;422;51.280;7.236;2023-10-09T15:36:27;19.70;;;15.57;;
870;SDS011;422;51.280;7.236;2023-10-09T15:38:59;17.10;;;15.27;;
870;SDS011;422;51.280;7.236;2023-10-09T15:41:27;19.90;;;15.47;;
870;SDS011;422;51.280;7.236;2023-10-09T15:43:56;19.50;;;15.47;;
870;SDS011;422;51.280;7.236;2023-10-09T15:46:26;20.87;;;15.43;;
870;SDS011;422;51.280;7.236;2023-10-09T15:48:58;19.87;;;15.53;;
870;SDS011;422;51.280;7.236;2023-10-09T15:51:26;21.33;;;15.30;;
870;SDS011;422;51.280;7.236;2023-10-09T15:53:55;17.93;;;15.43;;
870;SDS011;422;51.280;7.236;2023-10-09T15:56:24;20.17;;;16.70;;
870;SDS011;422;51.280;7.236;2023-10-09T15:58:52;20.60;;;16.60;;
870;SDS011;422;51.280;7.236;2023-10-09T16:01:20;21.37;;;16.17;;
870;SDS011;422;51.280;7.236;2023-10-09T16:03:47;19.77;;;14.90;;
870;SDS011;422;51.280;7.236;2023-10-09T16:06:16;19.90;;;15.40;;
870;SDS011;422;51.280;7.236;2023-10-09T16:08:45;21.60;;;15.93;;
870;SDS011;422;51.280;7.236;2023-10-09T16:11:16;19.23;;;14.73;;
870;SDS011;422;51.280;7.236;2023-10-09T16:13:45;19.83;;;15.03;;